Latest Weather Observations for Telfer

IDW60801

Issued at 4:34 pm WST Thursday 19 January 2017 (issued every 30 minutes, with the page automatically refreshed every 10 minutes)

About weather observations | Map of weather stations | Latest weather observations for WA | Other Formats
Station Details ID: 013030 Name: TELFER AERO Lat: -21.71 Lon: 122.23 Height: 291.9 m
Data from the previous 72 hours. | See also: Recent months at Telfer
Date/Time
WST
Temp
°C
App
Temp
°C
Dew
Point
°C
Rel
Hum
%
Delta-T
°C
Wind Press
QNH
hPa
Press
MSL
hPa
Rain since
9am
mm
Dir  Spd
km/h
Gust
km/h
Spd
kts
Gust
kts
19/04:30pm 29.4 33.3 23.6 71 4.1 WNW 9 13 5 7 1002.8 1000.2 8.0
19/04:00pm 29.3 33.1 23.5 71 4.0 SW 9 11 5 6 1003.0 1000.4 8.0
19/03:30pm 28.9 32.4 23.6 73 3.7 NW 11 13 6 7 1003.3 1000.7 8.0
19/03:00pm 28.0 31.0 24.0 79 2.8 WNW 15 19 8 10 1003.7 1001.1 8.0
19/02:30pm 27.6 30.6 24.6 84 2.1 WSW 17 22 9 12 1003.9 1001.3 8.0
19/02:00pm 30.2 32.3 23.1 65 4.9 WNW 17 22 9 12 1004.0 1001.4 8.0
19/01:30pm 29.8 31.2 22.8 66 4.8 WNW 20 26 11 14 1004.3 1001.7 8.0
19/01:00pm 29.5 31.0 22.7 67 4.7 WNW 19 24 10 13 1004.9 1002.4 8.0
19/12:30pm 29.1 30.8 23.1 70 4.1 NW 19 28 10 15 1005.3 1002.8 7.8
19/12:00pm 27.7 31.0 24.5 83 2.3 NW 15 20 8 11 1005.6 1003.1 7.8
19/11:30am 25.8 27.6 24.2 91 1.1 NW 22 32 12 17 1006.1 1003.5 7.8
19/11:00am 26.0 28.2 24.0 89 1.4 WNW 19 24 10 13 1006.7 1004.1 7.8
19/10:42am 25.6 28.1 24.4 93 0.8 WNW 19 24 10 13 1007.0 1004.4 7.8
19/10:30am 25.6 28.7 24.2 92 1.0 WNW 15 20 8 11 1007.0 1004.4 7.8
19/10:10am 26.3 28.8 23.8 86 1.7 W 17 22 9 12 1007.1 1004.5 1.4
19/10:00am 27.7 29.7 22.9 75 3.3 WNW 17 20 9 11 1007.0 1004.4 0.0
19/09:30am 27.5 29.5 22.9 76 3.2 WNW 17 20 9 11 1007.1 1004.5 0.0
19/09:00am 27.2 29.1 22.8 77 3.0 WNW 17 24 9 13 1007.2 1004.6 134.8
19/08:30am 26.7 29.2 23.2 81 2.4 NW 15 22 8 12 1007.1 1004.5 134.8
19/08:26am 26.6 29.2 23.3 82 2.3 NW 15 22 8 12 1007.2 1004.6 134.8
19/08:00am 26.0 28.7 23.5 86 1.7 NW 15 19 8 10 1007.0 1004.4 134.8
19/07:30am 25.7 28.5 23.7 89 1.4 NW 15 19 8 10 1006.8 1004.2 134.8
19/07:00am 24.6 28.3 23.9 96 0.5 NW 11 17 6 9 1006.6 1004.0 134.8
19/06:30am 24.3 27.9 24.3 100 0.0 NNW 13 19 7 10 1006.1 1003.5 134.8
19/06:00am 24.0 27.8 24.0 100 0.0 NNW 11 15 6 8 1005.7 1003.2 134.8
19/05:30am 23.8 27.8 23.8 100 0.0 N 9 13 5 7 1005.5 1003.0 134.8
19/05:00am 23.7 28.2 23.7 100 0.0 NE 6 7 3 4 1005.5 1003.0 134.8
19/04:30am 24.0 29.7 23.8 99 0.1 CALM 0 0 0 0 1005.6 1003.1 134.8
19/04:27am 24.0 29.7 23.8 99 0.1 CALM 0 0 0 0 1005.6 1003.1 134.8
19/04:00am 24.2 28.4 23.2 94 0.7 W 6 9 3 5 1005.4 1002.9 134.8
19/03:30am 24.1 28.2 23.2 95 0.6 W 7 11 4 6 1005.4 1002.9 134.8
19/03:00am 24.0 27.2 23.1 95 0.6 W 11 15 6 8 1005.5 1003.0 134.8
19/02:30am 23.9 27.4 22.9 94 0.7 WSW 9 13 5 7 1005.6 1003.1 134.8
19/02:00am 23.6 27.1 23.6 100 0.0 WSW 11 19 6 10 1006.1 1003.5 134.8
19/01:30am 23.7 27.7 23.7 100 0.0 SW 9 11 5 6 1006.5 1003.9 134.2
19/01:00am 23.6 27.1 23.6 100 0.0 WSW 11 13 6 7 1006.7 1004.1 133.6
19/12:33am 23.6 27.5 23.6 100 0.0 WSW 9 13 5 7 1007.0 1004.4 131.6
19/12:30am 23.6 27.5 23.6 100 0.0 SW 9 13 5 7 1006.9 1004.3 131.2
19/12:10am 23.6 26.7 23.6 100 0.0 WSW 13 17 7 9 1007.1 1004.5 130.2
19/12:00am 23.6 26.7 23.6 100 0.0 WSW 13 20 7 11 1007.4 1004.8 129.4
 
Date/Time
WST
Temp
°C
App
Temp
°C
Dew
Point
°C
Rel
Hum
%
Delta-T
°C
Wind Press
QNH
hPa
Press
MSL
hPa
Rain since
9am
mm
Dir  Spd
km/h
Gust
km/h
Spd
kts
Gust
kts
18/11:53pm 23.5 25.8 23.5 100 0.0 WSW 17 24 9 13 1007.6 1005.1 128.8
18/11:42pm 23.5 25.4 23.5 100 0.0 WSW 19 26 10 14 1007.6 1005.1 127.8
18/11:30pm 23.5 24.5 23.5 100 0.0 WSW 24 32 13 17 1007.9 1005.4 126.2
18/11:28pm 23.5 24.9 23.5 100 0.0 WSW 22 30 12 16 1007.9 1005.4 126.0
18/11:00pm 23.6 26.4 23.6 100 0.0 WSW 15 28 8 15 1008.1 1005.6 117.8
18/10:30pm 23.7 26.1 23.7 100 0.0 NW 17 22 9 12 1008.4 1005.9 103.4
18/10:00pm 23.8 27.1 23.8 100 0.0 WNW 13 17 7 9 1008.3 1005.8 96.0
18/09:30pm 23.5 27.0 23.5 100 0.0 NW 11 17 6 9 1008.3 1005.8 88.8
18/09:00pm 23.6 27.5 23.6 100 0.0 N 9 13 5 7 1008.2 1005.7 73.6
18/08:42pm 23.8 28.2 23.8 100 0.0 N 7 11 4 6 1008.0 1005.5 62.8
18/08:30pm 23.8 27.4 23.8 100 0.0 N 11 17 6 9 1007.9 1005.4 54.8
18/08:00pm 24.2 27.6 24.0 99 0.1 NNW 13 22 7 12 1007.0 1004.4 25.0
18/07:35pm 25.6 28.3 23.5 88 1.4 NW 15 37 8 20 1006.6 1004.0 4.8
18/07:31pm 25.8 29.2 23.3 86 1.7 NNW 11 30 6 16 1006.5 1003.9 3.6
18/07:30pm 25.9 28.9 23.4 86 1.7 NW 13 22 7 12 1006.6 1004.0 1.6
18/07:18pm 26.8 26.5 22.6 78 2.9 W 28 39 15 21 1006.0 1003.4 0.4
18/07:00pm 28.0 31.1 22.9 74 3.5 ENE 11 17 6 9 1005.8 1003.3 0.4
18/06:30pm 28.6 30.2 23.3 73 3.7 SE 20 28 11 15 1005.4 1002.9 0.4
18/06:00pm 29.3 30.7 22.5 67 4.7 SSE 19 26 10 14 1005.0 1002.5 0.4
18/05:30pm 30.5 32.5 22.9 64 5.3 SSW 17 26 9 14 1004.5 1002.0 0.4
18/05:00pm 31.7 34.9 22.4 58 6.4 S 9 13 5 7 1004.4 1001.8 0.4
18/04:30pm 31.9 36.1 23.2 60 6.1 SSW 6 9 3 5 1004.3 1001.7 0.4
18/04:00pm 31.3 35.1 23.4 63 5.5 E 9 15 5 8 1004.1 1001.5 0.4
18/03:30pm 31.4 34.4 24.0 65 5.2 ESE 15 19 8 10 1004.3 1001.7 0.4
18/03:00pm 31.1 34.9 24.0 66 5.0 SE 11 17 6 9 1004.6 1002.1 0.4
18/02:30pm 31.3 35.3 23.7 64 5.3 SSE 9 15 5 8 1004.6 1002.1 0.4
18/02:00pm 31.2 34.7 22.8 61 5.8 E 9 13 5 7 1005.1 1002.6 0.4
18/01:30pm 30.7 33.8 22.8 62 5.5 E 11 17 6 9 1005.7 1003.2 0.4
18/01:00pm 30.2 33.6 23.4 67 4.7 SE 11 13 6 7 1006.3 1003.7 0.4
18/12:30pm 29.6 33.6 23.8 71 4.0 E 9 17 5 9 1006.7 1004.1 0.4
18/12:00pm 29.6 34.6 23.8 71 4.1 SE 4 9 2 5 1006.9 1004.3 0.4
18/11:30am 29.2 35.0 24.5 76 3.3 S 2 7 1 4 1007.3 1004.7 0.2
18/11:00am 27.6 32.3 23.4 78 2.9 SW 4 7 2 4 1007.6 1005.1 0.2
18/10:30am 27.7 31.0 22.6 74 3.5 SW 9 13 5 7 1007.9 1005.4 0.0
18/10:00am 27.4 30.1 22.8 76 3.2 SSW 13 17 7 9 1008.3 1005.8 0.0
18/09:30am 27.2 29.8 22.6 76 3.1 SSW 13 17 7 9 1008.4 1005.9 0.0
18/09:00am 27.1 30.3 23.1 79 2.8 SSW 11 20 6 11 1008.4 1005.9 52.2
18/08:30am 26.5 29.9 23.4 83 2.1 SSW 11 17 6 9 1008.4 1005.9 52.2
18/08:00am 26.0 29.6 23.7 87 1.6 SSW 11 15 6 8 1008.3 1005.8 52.2
18/07:30am 25.5 29.7 23.4 88 1.4 S 7 11 4 6 1008.4 1005.9 52.2
18/07:00am 24.9 28.9 23.7 93 0.8 SW 9 11 5 6 1008.3 1005.8 52.2
18/06:30am 24.6 30.2 23.6 94 0.7 CALM 0 0 0 0 1008.3 1005.8 52.2
18/06:00am 24.5 28.3 23.5 94 0.7 SW 9 13 5 7 1008.0 1005.5 52.2
18/05:30am 24.3 28.2 24.3 100 0.0 SSW 11 15 6 8 1007.6 1005.1 52.2
18/05:00am 23.9 29.7 23.9 100 0.0 CALM 0 0 0 0 1007.7 1005.2 51.6
18/04:56am 23.8 29.5 23.8 100 0.0 CALM 0 0 0 0 1007.7 1005.2 51.6
18/04:45am 23.7 29.4 23.7 100 0.0 CALM 0 6 0 3 1007.8 1005.3 51.0
18/04:30am 23.8 27.8 23.8 100 0.0 WNW 9 11 5 6 1007.8 1005.3 49.4
18/04:00am 23.6 28.1 23.6 100 0.0 NNW 6 15 3 8 1007.8 1005.3 47.0
18/03:47am 23.5 27.3 23.5 100 0.0 SSW 9 20 5 11 1007.4 1004.8 46.4
18/03:30am 23.3 24.2 23.3 100 0.0 SSE 24 32 13 17 1006.9 1004.3 45.6
18/03:17am 23.4 25.3 23.4 100 0.0 SSW 19 24 10 13 1006.8 1004.2 38.4
18/03:00am 23.4 24.3 23.4 100 0.0 WSW 24 32 13 17 1007.2 1004.6 28.4
18/02:40am 23.9 24.0 23.9 100 0.0 WSW 30 48 16 26 1006.8 1004.2 2.2
18/02:38am 23.9 24.3 23.7 99 0.1 WSW 28 37 15 20 1006.9 1004.3 1.8
18/02:30am 24.0 23.8 22.8 93 0.8 SW 28 39 15 21 1006.8 1004.2 0.2
18/02:28am 24.3 24.2 22.9 92 1.0 SW 28 39 15 21 1006.8 1004.2 0.0
18/02:00am 26.3 25.3 21.9 77 3.0 SW 30 41 16 22 1006.8 1004.2 0.0
18/01:57am 26.4 25.8 22.0 77 3.0 SW 28 41 15 22 1006.7 1004.1 0.0
18/01:30am 28.2 31.1 22.4 71 4.0 W 11 13 6 7 1006.7 1004.1 0.0
18/01:00am 28.3 31.1 22.3 70 4.1 W 11 13 6 7 1006.8 1004.2 0.0
18/12:30am 28.1 30.3 21.9 69 4.2 WSW 13 17 7 9 1006.6 1004.0 0.0
18/12:00am 29.0 31.9 22.5 68 4.5 WSW 11 15 6 8 1006.9 1004.3 0.0
 
Date/Time
WST
Temp
°C
App
Temp
°C
Dew
Point
°C
Rel
Hum
%
Delta-T
°C
Wind Press
QNH
hPa
Press
MSL
hPa
Rain since
9am
mm
Dir  Spd
km/h
Gust
km/h
Spd
kts
Gust
kts
17/11:30pm 29.6 32.1 23.1 68 4.5 WSW 15 20 8 11 1006.8 1004.2 0.0
17/11:00pm 29.7 31.9 23.2 68 4.5 WNW 17 20 9 11 1006.8 1004.2 0.0
17/10:30pm 29.9 33.1 23.1 67 4.7 NW 11 17 6 9 1007.2 1004.6 0.0
17/10:00pm 30.5 33.2 22.9 64 5.3 WNW 13 17 7 9 1007.6 1005.1 0.0
17/09:30pm 30.5 33.6 22.9 64 5.3 NW 11 17 6 9 1007.5 1004.9 0.0
17/09:00pm 30.6 33.9 22.5 62 5.6 NNW 9 13 5 7 1007.1 1004.5 0.0
17/08:30pm 30.9 34.0 22.2 59 6.0 NNW 9 13 5 7 1006.9 1004.3 0.0
17/08:00pm 31.7 34.6 21.8 55 6.8 NNW 9 20 5 11 1006.8 1004.2 0.0
17/07:30pm 32.8 36.9 20.7 49 8.2 CALM 0 0 0 0 1005.8 1003.3 0.0
17/07:00pm 33.0 35.8 20.5 47 8.5 NNW 6 7 3 4 1005.3 1002.8 0.0
17/06:30pm 33.3 35.9 20.1 45 8.9 SW 6 9 3 5 1005.1 1002.6 0.0
17/06:00pm 34.0 36.4 20.0 43 9.4 W 7 13 4 7 1004.8 1002.3 0.0
17/05:30pm 34.5 37.1 20.1 43 9.7 W 6 11 3 6 1004.7 1002.2 0.0
17/05:00pm 33.8 35.9 20.2 44 9.2 WNW 9 13 5 7 1004.3 1001.7 0.0
17/04:30pm 34.3 35.5 20.7 45 9.2 NW 15 20 8 11 1004.1 1001.5 0.0
17/04:00pm 33.9 35.7 20.3 45 9.2 WNW 11 20 6 11 1003.9 1001.3 0.0
17/03:30pm 33.5 34.1 20.3 46 8.9 NW 17 24 9 13 1003.8 1001.2 0.0
17/03:00pm 34.2 37.1 20.6 45 9.2 W 6 13 3 7 1004.4 1001.8 0.0
17/02:30pm 32.9 35.1 20.4 47 8.4 NNW 9 17 5 9 1005.0 1002.5 0.0
17/02:00pm 32.9 35.3 20.8 49 8.2 NW 9 15 5 8 1005.5 1003.0 0.0
17/01:30pm 32.3 34.2 20.5 49 7.9 NW 11 17 6 9 1005.7 1003.2 0.0
17/01:00pm 31.7 33.8 20.9 52 7.3 NW 11 15 6 8 1006.2 1003.6 0.0
17/12:30pm 31.4 33.7 21.3 55 6.9 NW 11 17 6 9 1006.7 1004.1 0.0
17/12:00pm 31.1 34.2 21.0 55 6.8 NW 6 13 3 7 1007.2 1004.6 0.0
17/11:30am 30.5 33.0 21.0 57 6.4 WNW 9 17 5 9 1007.6 1005.1 0.0
17/11:00am 29.9 32.4 21.0 59 6.0 NNW 9 15 5 8 1008.0 1005.5 0.0
17/10:30am 30.1 33.5 22.0 62 5.5 NNW 7 17 4 9 1008.3 1005.8 0.0
17/10:00am 29.4 32.2 21.6 63 5.3 W 9 13 5 7 1008.7 1006.2 0.0
17/09:30am 29.3 31.8 21.8 64 5.1 WNW 11 19 6 10 1008.7 1006.2 0.0
17/09:00am 28.9 30.7 21.9 66 4.8 WNW 15 20 8 11 1008.4 1005.9 0.0
17/08:30am 28.8 30.4 22.1 67 4.6 W 17 22 9 12 1008.1 1005.6 0.0
17/08:00am 28.2 29.8 22.2 70 4.1 WNW 17 22 9 12 1008.0 1005.5 0.0
17/07:30am 27.7 29.7 22.2 72 3.7 WNW 15 19 8 10 1008.0 1005.5 0.0
17/07:00am 27.4 29.3 22.1 73 3.6 NW 15 22 8 12 1008.0 1005.5 0.0
17/06:30am 27.1 29.4 22.1 74 3.4 NW 13 22 7 12 1007.8 1005.3 0.0
17/06:00am 27.0 28.5 22.0 74 3.4 NW 17 20 9 11 1007.6 1005.1 0.0
17/05:30am 27.2 28.5 21.7 72 3.7 WNW 17 24 9 13 1007.4 1004.8 0.0
17/05:00am 27.3 27.5 21.3 69 4.0 WNW 22 28 12 15 1006.9 1004.3 0.0
17/04:30am 27.5 28.5 21.8 71 3.9 WNW 19 24 10 13 1006.5 1003.9 0.0
17/04:00am 27.5 28.1 21.3 69 4.2 WNW 20 28 11 15 1006.3 1003.7 0.0
17/03:30am 27.5 27.9 21.8 71 3.9 WNW 22 30 12 16 1006.0 1003.4 0.0
17/03:00am 27.8 27.6 21.3 67 4.4 WNW 24 32 13 17 1005.7 1003.2 0.0
17/02:30am 28.0 28.4 21.8 69 4.2 WNW 22 32 12 17 1005.8 1003.3 0.0
17/02:00am 27.9 28.6 22.2 71 3.9 WNW 22 30 12 16 1006.0 1003.4 0.0
17/01:30am 28.0 29.2 22.5 72 3.8 NW 20 32 11 17 1006.0 1003.4 0.0
17/01:00am 28.3 28.5 22.1 69 4.2 WNW 24 33 13 18 1005.7 1003.2 0.0
17/12:30am 28.7 27.9 21.7 66 4.7 WNW 28 35 15 19 1006.0 1003.4 0.0
17/12:00am 28.9 28.5 21.7 65 4.9 WNW 26 35 14 19 1006.2 1003.6 0.0
 
Date/Time
WST
Temp
°C
App
Temp
°C
Dew
Point
°C
Rel
Hum
%
Delta-T
°C
Wind Press
QNH
hPa
Press
MSL
hPa
Rain since
9am
mm
Dir  Spd
km/h
Gust
km/h
Spd
kts
Gust
kts
16/11:30pm 29.2 28.8 21.7 64 5.1 WNW 26 35 14 19 1006.3 1003.7 0.0
16/11:00pm 29.5 29.1 21.7 63 5.3 WNW 26 35 14 19 1006.4 1003.8 0.0
16/10:30pm 29.8 29.4 21.7 61 5.5 WNW 26 35 14 19 1006.8 1004.2 0.0
16/10:00pm 29.9 29.5 21.6 61 5.6 WNW 26 35 14 19 1006.6 1004.0 0.0
16/09:30pm 30.2 29.6 21.3 59 6.0 NW 26 35 14 19 1006.7 1004.1 0.0
16/09:00pm 30.5 29.5 21.3 58 6.2 WNW 28 39 15 21 1006.5 1003.9 0.0
16/08:30pm 30.7 30.0 21.8 59 6.1 NW 28 41 15 22 1006.2 1003.6 0.0
16/08:00pm 31.3 31.4 21.8 57 6.5 NW 24 35 13 19 1005.7 1003.2 0.0
16/07:30pm 32.2 31.2 20.5 50 7.9 NW 26 35 14 19 1005.4 1002.9 0.0
16/07:00pm 33.0 31.5 20.2 47 8.6 NW 28 41 15 22 1005.1 1002.6 0.0
16/06:30pm 33.8 32.9 20.6 46 8.9 NW 26 35 14 19 1004.7 1002.2 0.0
16/06:00pm 34.7 33.6 20.3 43 9.8 NW 26 33 14 18 1004.3 1001.7 0.0
16/05:30pm 35.3 33.9 19.6 39 10.5 WNW 26 37 14 20 1003.8 1001.2 0.0
16/05:00pm 36.2 35.7 17.8 33 12.1 NW 17 28 9 15 1003.4 1000.8 0.0

Other Formats:

Comma delimited format used in spreadsheet applications
http://www.bom.gov.au/fwo/IDW60801/IDW60801.94319.axf

JavaScript Object Notation format (JSON) in row-major order
http://www.bom.gov.au/fwo/IDW60801/IDW60801.94319.json